Time;durP1;ratioP1;P1;durP2;ratioP2;P2;SDS_P1;SDS_P2;PMS_P1;PMS_P2;Temp;Humidity;BMP_temperature;BMP_pressure;BME280_temperature;BME280_humidity;BME280_pressure;Samples;Min_cycle;Max_cycle;Signal;HPM_P1;HPM_P2
2023/06/14 12:35:13;;;;;;;7.00;3.60;;;;;;;;;;104911;302;559733;-41
2023/06/14 12:37:47;;;;;;;7.40;3.60;;;;;;;;;;107645;290;43986;-41
2023/06/14 12:40:22;;;;;;;5.80;3.40;;;;;;;;;;107692;284;42128;-44
2023/06/14 12:42:55;;;;;;;6.30;3.30;;;;;;;;;;107828;281;38665;-43
2023/06/14 12:45:28;;;;;;;6.10;3.30;;;;;;;;;;107690;283;175477;-44
2023/06/14 12:48:02;;;;;;;6.80;3.30;;;;;;;;;;107422;281;571941;-47
2023/06/14 12:50:35;;;;;;;5.90;3.30;;;;;;;;;;107939;278;42428;-50
2023/06/14 12:53:12;;;;;;;5.90;3.30;;;;;;;;;;107996;278;38771;-46
2023/06/14 12:55:45;;;;;;;6.20;3.20;;;;;;;;;;107963;279;39654;-47
2023/06/14 12:58:19;;;;;;;6.40;3.20;;;;;;;;;;107980;270;42466;-47
2023/06/14 13:00:53;;;;;;;5.20;3.20;;;;;;;;;;108037;278;42297;-43
2023/06/14 13:03:27;;;;;;;6.50;3.20;;;;;;;;;;108037;278;38831;-45
2023/06/14 13:06:00;;;;;;;5.70;2.90;;;;;;;;;;107972;278;39713;-45
2023/06/14 13:08:33;;;;;;;6.40;3.10;;;;;;;;;;107948;278;42807;-45
2023/06/14 13:11:07;;;;;;;4.80;3.10;;;;;;;;;;108052;278;43373;-47
2023/06/14 13:13:40;;;;;;;5.50;3.30;;;;;;;;;;107999;278;39025;-45
2023/06/14 13:16:14;;;;;;;5.30;3.30;;;;;;;;;;108018;269;39679;-44
2023/06/14 13:18:48;;;;;;;6.00;3.30;;;;;;;;;;108063;276;42524;-48
2023/06/14 13:21:24;;;;;;;5.50;2.80;;;;;;;;;;107923;278;43584;-45
2023/06/14 13:23:57;;;;;;;5.40;3.20;;;;;;;;;;107997;269;39878;-44
2023/06/14 13:26:31;;;;;;;5.70;3.20;;;;;;;;;;107812;273;175496;-43
2023/06/14 13:29:05;;;;;;;5.60;3.10;;;;;;;;;;108042;276;42840;-43
2023/06/14 13:31:38;;;;;;;6.60;3.20;;;;;;;;;;108002;276;44164;-44
2023/06/14 13:34:15;;;;;;;5.30;3.20;;;;;;;;;;107979;276;39835;-45
2023/06/14 13:36:48;;;;;;;6.40;3.20;;;;;;;;;;108068;276;40991;-45
2023/06/14 13:39:21;;;;;;;4.50;3.10;;;;;;;;;;108052;276;42781;-42
2023/06/14 13:41:54;;;;;;;6.50;3.40;;;;;;;;;;108111;273;42138;-50
2023/06/14 13:44:27;;;;;;;4.90;2.80;;;;;;;;;;108109;276;39063;-46
2023/06/14 13:47:02;;;;;;;5.10;3.20;;;;;;;;;;108096;277;39788;-52
2023/06/14 13:49:35;;;;;;;5.00;3.10;;;;;;;;;;108086;276;42752;-53
2023/06/14 13:52:11;;;;;;;6.90;3.20;;;;;;;;;;108081;276;42253;-45
2023/06/14 13:54:45;;;;;;;7.20;3.30;;;;;;;;;;108134;268;39055;-46
2023/06/14 13:57:22;;;;;;;5.70;3.40;;;;;;;;;;108028;268;39607;-45
2023/06/14 14:00:00;;;;;;;5.70;3.40;;;;;;;;;;108048;277;42740;-45
2023/06/14 14:02:34;;;;;;;5.40;3.40;;;;;;;;;;108060;268;42117;-45
2023/06/14 14:05:12;;;;;;;6.00;3.50;;;;;;;;;;108052;277;38507;-46
2023/06/14 14:07:45;;;;;;;6.70;3.50;;;;;;;;;;107955;278;39672;-45
2023/06/14 14:10:20;;;;;;;5.80;3.50;;;;;;;;;;108008;277;42743;-45
2023/06/14 14:12:54;;;;;;;5.10;3.00;;;;;;;;;;108032;277;41863;-45
2023/06/14 14:15:28;;;;;;;5.50;3.30;;;;;;;;;;108047;276;39785;-45
2023/06/14 14:18:03;;;;;;;5.80;3.30;;;;;;;;;;107914;277;175698;-47
2023/06/14 14:20:39;;;;;;;5.20;3.10;;;;;;;;;;108048;276;42827;-47
2023/06/14 14:23:13;;;;;;;6.50;3.40;;;;;;;;;;107930;273;175512;-45
2023/06/14 14:25:47;;;;;;;7.30;3.70;;;;;;;;;;108080;273;38788;-44
2023/06/14 14:28:20;;;;;;;6.60;3.70;;;;;;;;;;108018;273;45732;-48
2023/06/14 14:30:55;;;;;;;5.90;3.50;;;;;;;;;;108045;268;42859;-43
2023/06/14 14:33:28;;;;;;;6.40;3.60;;;;;;;;;;108057;276;42103;-44
2023/06/14 14:36:03;;;;;;;7.20;3.80;;;;;;;;;;108092;276;39957;-44
2023/06/14 14:38:37;;;;;;;7.50;3.90;;;;;;;;;;108158;276;46325;-47
2023/06/14 14:41:11;;;;;;;6.30;3.60;;;;;;;;;;108042;273;42536;-44
2023/06/14 14:43:45;;;;;;;5.40;3.30;;;;;;;;;;108053;280;41846;-44
2023/06/14 14:46:18;;;;;;;6.10;3.30;;;;;;;;;;108026;273;38569;-43
2023/06/14 14:48:51;;;;;;;5.90;3.70;;;;;;;;;;108009;270;46242;-44
2023/06/14 14:51:27;;;;;;;6.50;3.40;;;;;;;;;;108051;268;43234;-45
2023/06/14 14:54:00;;;;;;;5.80;3.70;;;;;;;;;;108111;277;41891;-45
2023/06/14 14:56:37;;;;;;;5.50;3.50;;;;;;;;;;108064;277;38765;-45
2023/06/14 14:59:13;;;;;;;5.40;3.30;;;;;;;;;;108008;268;45422;-44
2023/06/14 15:01:47;;;;;;;6.80;3.50;;;;;;;;;;108075;276;44054;-46
2023/06/14 15:04:20;;;;;;;6.50;3.30;;;;;;;;;;108139;277;44321;-42
2023/06/14 15:06:54;;;;;;;6.40;3.70;;;;;;;;;;108092;272;38769;-43
2023/06/14 15:09:27;;;;;;;6.50;3.40;;;;;;;;;;108118;272;46326;-44
2023/06/14 15:12:02;;;;;;;5.50;3.40;;;;;;;;;;108153;272;42536;-47
2023/06/14 15:14:35;;;;;;;5.80;3.30;;;;;;;;;;108149;268;41955;-44
2023/06/14 15:17:13;;;;;;;5.90;3.40;;;;;;;;;;108188;276;38870;-48
2023/06/14 15:19:47;;;;;;;6.30;3.20;;;;;;;;;;108118;276;46588;-47
2023/06/14 15:22:20;;;;;;;7.80;3.80;;;;;;;;;;108108;268;42664;-44
2023/06/14 15:24:53;;;;;;;7.00;3.50;;;;;;;;;;108116;272;42290;-44
2023/06/14 15:27:28;;;;;;;6.90;3.60;;;;;;;;;;108147;272;38799;-50
2023/06/14 15:30:03;;;;;;;6.60;3.30;;;;;;;;;;108017;270;45372;-47
2023/06/14 15:32:36;;;;;;;6.30;3.30;;;;;;;;;;108103;273;42517;-44
2023/06/14 15:35:12;;;;;;;7.00;3.30;;;;;;;;;;108075;272;43266;-45
2023/06/14 15:37:51;;;;;;;5.90;3.10;;;;;;;;;;108111;272;40856;-44
2023/06/14 15:40:26;;;;;;;6.80;3.70;;;;;;;;;;108071;268;45092;-45
2023/06/14 15:42:59;;;;;;;5.10;3.10;;;;;;;;;;108178;276;43728;-45
2023/06/14 15:45:36;;;;;;;5.80;3.40;;;;;;;;;;108122;276;42108;-43
2023/06/14 15:48:10;;;;;;;6.60;3.50;;;;;;;;;;108108;276;38551;-45
2023/06/14 15:50:44;;;;;;;7.20;3.70;;;;;;;;;;108045;272;45252;-46
2023/06/14 15:53:20;;;;;;;5.60;3.20;;;;;;;;;;108116;268;42769;-47
2023/06/14 15:55:56;;;;;;;7.00;3.30;;;;;;;;;;108120;268;42213;-45
2023/06/14 15:58:29;;;;;;;5.70;3.20;;;;;;;;;;108115;276;38981;-47
2023/06/14 16:01:02;;;;;;;6.70;3.40;;;;;;;;;;108036;276;46282;-44
2023/06/14 16:03:35;;;;;;;6.30;3.10;;;;;;;;;;108099;276;42869;-41
2023/06/14 16:06:11;;;;;;;6.30;3.00;;;;;;;;;;108095;276;41891;-45
2023/06/14 16:08:46;;;;;;;5.90;3.50;;;;;;;;;;108187;276;39928;-44
2023/06/14 16:11:19;;;;;;;5.70;3.20;;;;;;;;;;108155;276;45601;-45
2023/06/14 16:13:53;;;;;;;6.30;2.90;;;;;;;;;;108198;276;42823;-43
2023/06/14 16:16:27;;;;;;;6.40;3.10;;;;;;;;;;108138;276;42218;-43
2023/06/14 16:19:00;;;;;;;5.30;2.80;;;;;;;;;;108170;272;38559;-45
2023/06/14 16:21:36;;;;;;;5.40;3.00;;;;;;;;;;108051;269;45278;-44
2023/06/14 16:24:14;;;;;;;5.60;2.90;;;;;;;;;;108255;276;42932;-46
2023/06/14 16:26:48;;;;;;;5.00;3.10;;;;;;;;;;108193;272;42171;-45
2023/06/14 16:29:21;;;;;;;5.30;3.10;;;;;;;;;;108139;272;38538;-50
2023/06/14 16:31:54;;;;;;;5.50;3.00;;;;;;;;;;108178;276;40975;-50
2023/06/14 16:34:30;;;;;;;4.50;2.70;;;;;;;;;;108169;272;44005;-47
2023/06/14 16:37:03;;;;;;;6.20;3.10;;;;;;;;;;108226;276;42109;-50
2023/06/14 16:39:40;;;;;;;6.40;3.30;;;;;;;;;;108030;277;38791;-47
2023/06/14 16:42:14;;;;;;;6.00;3.00;;;;;;;;;;108139;272;46912;-46
2023/06/14 16:44:47;;;;;;;6.70;2.90;;;;;;;;;;108155;272;42550;-45
2023/06/14 16:47:22;;;;;;;5.30;3.10;;;;;;;;;;108092;272;41821;-48
2023/06/14 16:49:56;;;;;;;5.90;3.10;;;;;;;;;;108210;269;38798;-46
2023/06/14 16:52:29;;;;;;;5.60;3.10;;;;;;;;;;108188;276;46956;-45
2023/06/14 16:55:02;;;;;;;5.90;3.20;;;;;;;;;;108143;276;43845;-49
2023/06/14 16:57:36;;;;;;;5.30;3.00;;;;;;;;;;108240;276;42178;-49
2023/06/14 17:00:13;;;;;;;5.30;3.00;;;;;;;;;;108214;269;38861;-45
2023/06/14 17:02:52;;;;;;;5.60;3.10;;;;;;;;;;108212;272;46845;-50
2023/06/14 17:05:28;;;;;;;6.00;3.00;;;;;;;;;;108192;276;42930;-47
2023/06/14 17:08:04;;;;;;;6.10;3.20;;;;;;;;;;108211;276;42356;-46
2023/06/14 17:10:37;;;;;;;5.50;3.00;;;;;;;;;;108127;276;39960;-49
2023/06/14 17:13:11;;;;;;;5.10;2.90;;;;;;;;;;108082;269;175518;-45
2023/06/14 17:15:44;;;;;;;5.10;3.10;;;;;;;;;;108206;276;43707;-49
2023/06/14 17:18:18;;;;;;;5.20;3.00;;;;;;;;;;108186;269;43126;-46
2023/06/14 17:20:52;;;;;;;5.40;3.30;;;;;;;;;;108121;269;38816;-45
2023/06/14 17:23:25;;;;;;;5.50;2.90;;;;;;;;;;108164;276;40580;-52
2023/06/14 17:25:58;;;;;;;4.70;2.90;;;;;;;;;;108205;276;43971;-52
2023/06/14 17:28:31;;;;;;;6.40;3.40;;;;;;;;;;108125;276;42232;-46
2023/06/14 17:31:05;;;;;;;5.30;3.00;;;;;;;;;;108053;272;38859;-47
2023/06/14 17:33:38;;;;;;;5.20;3.00;;;;;;;;;;108095;272;39715;-48
2023/06/14 17:36:12;;;;;;;5.20;2.90;;;;;;;;;;108152;276;42752;-49
2023/06/14 17:38:48;;;;;;;4.70;2.90;;;;;;;;;;108152;268;42337;-46
2023/06/14 17:41:23;;;;;;;5.10;3.20;;;;;;;;;;108123;272;38765;-48
2023/06/14 17:43:56;;;;;;;4.90;3.00;;;;;;;;;;108183;272;39670;-45
2023/06/14 17:46:31;;;;;;;5.40;2.80;;;;;;;;;;108162;268;42790;-46
2023/06/14 17:49:06;;;;;;;5.60;3.00;;;;;;;;;;108171;276;42145;-45
2023/06/14 17:51:39;;;;;;;5.30;3.00;;;;;;;;;;108105;276;39753;-47
2023/06/14 17:54:13;;;;;;;4.90;3.10;;;;;;;;;;108145;276;39687;-50
2023/06/14 17:56:49;;;;;;;5.30;3.10;;;;;;;;;;108119;276;43845;-50
2023/06/14 17:59:25;;;;;;;6.00;3.10;;;;;;;;;;108100;276;41962;-46
2023/06/14 18:01:59;;;;;;;5.70;3.30;;;;;;;;;;107997;273;38833;-49
2023/06/14 18:04:32;;;;;;;5.30;3.40;;;;;;;;;;108148;269;40812;-47
2023/06/14 18:07:07;;;;;;;5.10;3.50;;;;;;;;;;108139;276;42741;-47
2023/06/14 18:09:40;;;;;;;4.90;3.40;;;;;;;;;;108180;276;43297;-46
2023/06/14 18:12:14;;;;;;;5.30;3.40;;;;;;;;;;108099;269;38709;-46
2023/06/14 18:14:49;;;;;;;4.90;3.10;;;;;;;;;;108119;272;40689;-45
2023/06/14 18:17:22;;;;;;;5.80;3.70;;;;;;;;;;108144;276;44002;-47
2023/06/14 18:19:56;;;;;;;5.70;3.60;;;;;;;;;;108182;269;42087;-45
2023/06/14 18:22:31;;;;;;;5.90;3.60;;;;;;;;;;108127;276;40193;-44
2023/06/14 18:25:09;;;;;;;5.30;3.40;;;;;;;;;;108112;276;39684;-46
2023/06/14 18:27:42;;;;;;;5.10;3.30;;;;;;;;;;108116;276;42760;-49
2023/06/14 18:30:16;;;;;;;6.20;3.50;;;;;;;;;;108064;272;175481;-46
2023/06/14 18:32:50;;;;;;;5.30;3.40;;;;;;;;;;108156;272;39054;-45
2023/06/14 18:35:24;;;;;;;5.80;3.60;;;;;;;;;;108105;276;41192;-48
2023/06/14 18:37:58;;;;;;;5.90;4.00;;;;;;;;;;108007;280;175501;-47
2023/06/14 18:40:31;;;;;;;6.60;4.20;;;;;;;;;;108071;270;42173;-48
2023/06/14 18:43:04;;;;;;;6.20;3.80;;;;;;;;;;108093;276;38795;-49
2023/06/14 18:45:38;;;;;;;5.50;3.80;;;;;;;;;;107475;272;891879;-45
2023/06/14 18:48:11;;;;;;;5.40;3.70;;;;;;;;;;108122;276;42800;-46
2023/06/14 18:50:44;;;;;;;5.60;3.80;;;;;;;;;;107465;276;893147;-45
2023/06/14 18:53:18;;;;;;;5.70;3.70;;;;;;;;;;108051;276;39898;-46
2023/06/14 18:55:53;;;;;;;5.80;3.80;;;;;;;;;;108051;275;41906;-47
2023/06/14 18:58:26;;;;;;;5.90;3.70;;;;;;;;;;108051;272;42824;-50
2023/06/14 19:01:00;;;;;;;5.70;3.80;;;;;;;;;;108050;268;43207;-46
2023/06/14 19:03:38;;;;;;;5.30;3.80;;;;;;;;;;108024;275;39933;-48
2023/06/14 19:06:12;;;;;;;6.10;3.80;;;;;;;;;;107895;267;175535;-45
2023/06/14 19:08:47;;;;;;;7.00;3.70;;;;;;;;;;108096;275;42783;-47
2023/06/14 19:11:21;;;;;;;5.90;3.60;;;;;;;;;;108112;275;43338;-50
2023/06/14 19:13:57;;;;;;;5.80;3.50;;;;;;;;;;108040;267;38749;-47
2023/06/14 19:16:32;;;;;;;5.70;3.50;;;;;;;;;;107991;275;193633;-46
2023/06/14 19:19:06;;;;;;;5.90;3.80;;;;;;;;;;108106;275;43180;-48
2023/06/14 19:21:43;;;;;;;6.40;3.90;;;;;;;;;;108063;271;43263;-48
2023/06/14 19:24:18;;;;;;;5.90;3.60;;;;;;;;;;108010;275;38754;-45
2023/06/14 19:26:53;;;;;;;6.50;3.90;;;;;;;;;;108121;275;39611;-46
2023/06/14 19:29:27;;;;;;;6.50;3.90;;;;;;;;;;108162;275;42873;-48
2023/06/14 19:32:01;;;;;;;6.40;3.80;;;;;;;;;;108114;271;41879;-45
2023/06/14 19:34:34;;;;;;;6.40;3.70;;;;;;;;;;108094;275;38803;-46
2023/06/14 19:37:11;;;;;;;6.20;3.70;;;;;;;;;;108123;271;39805;-47
2023/06/14 19:39:44;;;;;;;6.80;3.70;;;;;;;;;;108066;271;45244;-45
2023/06/14 19:42:18;;;;;;;7.00;4.10;;;;;;;;;;108071;275;42109;-48
2023/06/14 19:44:51;;;;;;;6.10;4.20;;;;;;;;;;108035;275;38562;-45
2023/06/14 19:47:27;;;;;;;6.10;4.00;;;;;;;;;;108089;267;39696;-45
2023/06/14 19:50:00;;;;;;;6.40;4.10;;;;;;;;;;108107;275;42798;-46
2023/06/14 19:52:33;;;;;;;7.30;4.00;;;;;;;;;;108102;275;43250;-47
2023/06/14 19:55:15;;;;;;;6.40;3.80;;;;;;;;;;108070;267;38574;-47
2023/06/14 19:57:48;;;;;;;6.10;4.10;;;;;;;;;;108115;275;39918;-49
2023/06/14 20:00:23;;;;;;;5.90;3.90;;;;;;;;;;108156;275;42923;-50
2023/06/14 20:02:57;;;;;;;6.40;4.30;;;;;;;;;;108147;275;42050;-49
2023/06/14 20:05:32;;;;;;;5.70;4.00;;;;;;;;;;108113;275;38834;-48
2023/06/14 20:08:06;;;;;;;7.40;4.10;;;;;;;;;;108152;267;40827;-45
2023/06/14 20:10:39;;;;;;;7.10;3.90;;;;;;;;;;108156;275;42718;-46
2023/06/14 20:13:12;;;;;;;6.20;4.10;;;;;;;;;;108169;275;42093;-54
2023/06/14 20:15:49;;;;;;;6.20;3.90;;;;;;;;;;108121;267;38793;-49
2023/06/14 20:18:25;;;;;;;5.80;4.00;;;;;;;;;;108150;275;40942;-52
2023/06/14 20:21:02;;;;;;;6.30;4.10;;;;;;;;;;108093;267;42782;-46
2023/06/14 20:23:38;;;;;;;6.40;4.10;;;;;;;;;;108099;272;42153;-49
2023/06/14 20:26:12;;;;;;;6.40;4.00;;;;;;;;;;108055;275;38520;-49
2023/06/14 20:28:45;;;;;;;6.50;4.00;;;;;;;;;;108125;275;39765;-46
2023/06/14 20:31:20;;;;;;;6.90;4.20;;;;;;;;;;108142;275;42895;-50
2023/06/14 20:33:54;;;;;;;6.30;4.30;;;;;;;;;;108128;271;42150;-46
2023/06/14 20:36:29;;;;;;;6.20;4.00;;;;;;;;;;108102;271;38631;-46
2023/06/14 20:39:03;;;;;;;6.00;3.90;;;;;;;;;;108135;275;40712;-44
2023/06/14 20:41:38;;;;;;;6.00;4.10;;;;;;;;;;108109;275;43931;-43
2023/06/14 20:44:13;;;;;;;6.30;4.00;;;;;;;;;;108151;275;43268;-48
2023/06/14 20:46:47;;;;;;;7.00;4.30;;;;;;;;;;108118;275;38758;-45
2023/06/14 20:49:23;;;;;;;6.20;4.40;;;;;;;;;;107757;275;535441;-46
2023/06/14 20:51:56;;;;;;;6.30;4.10;;;;;;;;;;108131;275;43930;-45
2023/06/14 20:54:29;;;;;;;6.20;4.10;;;;;;;;;;108118;275;41863;-47
2023/06/14 20:57:04;;;;;;;5.90;4.30;;;;;;;;;;108054;267;38858;-52
2023/06/14 20:59:40;;;;;;;7.20;4.00;;;;;;;;;;108074;275;39842;-50
2023/06/14 21:02:18;;;;;;;6.10;4.00;;;;;;;;;;108088;275;42967;-48
2023/06/14 21:04:53;;;;;;;6.70;4.20;;;;;;;;;;108113;271;42244;-48
2023/06/14 21:07:29;;;;;;;5.80;4.10;;;;;;;;;;108032;275;45548;-46
2023/06/14 21:10:02;;;;;;;6.40;4.20;;;;;;;;;;108084;271;39700;-49
2023/06/14 21:12:36;;;;;;;6.00;3.90;;;;;;;;;;108140;275;44096;-47
2023/06/14 21:15:11;;;;;;;6.10;3.70;;;;;;;;;;108077;271;41918;-45
2023/06/14 21:17:44;;;;;;;6.00;3.90;;;;;;;;;;108213;275;46682;-50
2023/06/14 21:20:18;;;;;;;5.60;3.90;;;;;;;;;;108148;275;40073;-49
2023/06/14 21:22:51;;;;;;;6.90;4.30;;;;;;;;;;108163;267;43986;-48
2023/06/14 21:25:25;;;;;;;8.00;4.30;;;;;;;;;;108113;271;42230;-47
2023/06/14 21:27:58;;;;;;;6.50;4.30;;;;;;;;;;108077;275;44580;-43
2023/06/14 21:30:38;;;;;;;6.00;3.90;;;;;;;;;;108166;267;39794;-49
2023/06/14 21:33:12;;;;;;;6.70;4.20;;;;;;;;;;108129;275;43764;-47
2023/06/14 21:35:45;;;;;;;6.90;4.30;;;;;;;;;;108104;267;42180;-47
2023/06/14 21:38:19;;;;;;;6.00;3.90;;;;;;;;;;108151;275;38539;-48
2023/06/14 21:40:52;;;;;;;7.90;4.30;;;;;;;;;;108117;275;39694;-46
2023/06/14 21:43:25;;;;;;;7.80;4.40;;;;;;;;;;108068;267;44143;-44
2023/06/14 21:46:03;;;;;;;6.30;4.20;;;;;;;;;;108049;271;42231;-47
2023/06/14 21:48:38;;;;;;;7.30;4.20;;;;;;;;;;108060;267;44928;-48
2023/06/14 21:51:11;;;;;;;7.30;4.10;;;;;;;;;;108046;267;40850;-45
2023/06/14 21:53:48;;;;;;;6.40;4.20;;;;;;;;;;108095;275;43991;-47
2023/06/14 21:56:23;;;;;;;6.80;4.00;;;;;;;;;;108066;271;43257;-47
2023/06/14 21:58:58;;;;;;;6.00;4.10;;;;;;;;;;108088;271;47274;-48
2023/06/14 22:01:31;;;;;;;6.80;3.90;;;;;;;;;;108047;275;39587;-46
2023/06/14 22:04:05;;;;;;;5.80;4.20;;;;;;;;;;108059;275;43089;-46
2023/06/14 22:06:43;;;;;;;6.40;4.30;;;;;;;;;;108064;271;42165;-43
2023/06/14 22:09:17;;;;;;;6.10;4.20;;;;;;;;;;108109;271;46841;-45
2023/06/14 22:11:51;;;;;;;5.30;4.00;;;;;;;;;;108046;267;39860;-47
2023/06/14 22:14:24;;;;;;;5.70;3.80;;;;;;;;;;108023;274;42795;-45
2023/06/14 22:16:58;;;;;;;5.90;3.90;;;;;;;;;;108060;274;42403;-47
2023/06/14 22:19:33;;;;;;;5.50;3.90;;;;;;;;;;108100;267;46823;-47
2023/06/14 22:22:09;;;;;;;5.70;4.00;;;;;;;;;;107429;270;911591;-47
2023/06/14 22:24:42;;;;;;;6.00;3.80;;;;;;;;;;108117;271;42876;-48
2023/06/14 22:27:20;;;;;;;6.90;4.20;;;;;;;;;;108088;274;42121;-45
2023/06/14 22:29:56;;;;;;;6.30;4.10;;;;;;;;;;108135;274;46065;-47
2023/06/14 22:32:32;;;;;;;6.80;4.10;;;;;;;;;;108153;270;40906;-45
2023/06/14 22:35:10;;;;;;;6.30;4.10;;;;;;;;;;108147;270;43860;-47
2023/06/14 22:37:45;;;;;;;6.50;4.20;;;;;;;;;;108085;270;42137;-47
2023/06/14 22:40:18;;;;;;;5.70;4.10;;;;;;;;;;108120;271;40014;-45
2023/06/14 22:42:53;;;;;;;5.70;3.90;;;;;;;;;;108111;270;39683;-50
2023/06/14 22:45:28;;;;;;;5.50;3.90;;;;;;;;;;107988;270;175525;-47
2023/06/14 22:48:02;;;;;;;5.80;3.90;;;;;;;;;;108065;271;42120;-52
2023/06/14 22:50:35;;;;;;;5.50;4.00;;;;;;;;;;108155;270;38568;-52
2023/06/14 22:53:09;;;;;;;6.10;4.00;;;;;;;;;;108167;274;39708;-48
2023/06/14 22:55:42;;;;;;;7.50;4.50;;;;;;;;;;108138;274;42930;-49
2023/06/14 22:58:16;;;;;;;8.70;4.80;;;;;;;;;;108079;274;42417;-54
2023/06/14 23:00:51;;;;;;;7.10;4.60;;;;;;;;;;108139;274;38815;-50
2023/06/14 23:03:24;;;;;;;8.00;4.50;;;;;;;;;;108111;274;39614;-45
2023/06/14 23:05:58;;;;;;;7.60;4.40;;;;;;;;;;108176;270;45197;-49
2023/06/14 23:08:33;;;;;;;8.30;4.50;;;;;;;;;;108080;274;42119;-48
2023/06/14 23:11:08;;;;;;;6.40;4.00;;;;;;;;;;108152;270;38908;-49
2023/06/14 23:13:43;;;;;;;8.00;4.30;;;;;;;;;;108167;274;39687;-51
2023/06/14 23:16:17;;;;;;;6.60;4.20;;;;;;;;;;108120;270;42818;-45
2023/06/14 23:18:56;;;;;;;6.10;4.00;;;;;;;;;;108065;270;43147;-48
2023/06/14 23:21:29;;;;;;;7.00;4.30;;;;;;;;;;108094;270;38510;-48
2023/06/14 23:24:02;;;;;;;6.60;4.10;;;;;;;;;;108083;267;39919;-47
2023/06/14 23:26:36;;;;;;;6.50;4.10;;;;;;;;;;108097;267;43855;-46
2023/06/14 23:29:09;;;;;;;6.00;4.30;;;;;;;;;;108093;274;41860;-50
2023/06/14 23:31:43;;;;;;;6.60;4.00;;;;;;;;;;108172;271;38815;-48
2023/06/14 23:34:17;;;;;;;7.00;4.00;;;;;;;;;;108122;271;39471;-44
2023/06/14 23:36:51;;;;;;;6.50;3.90;;;;;;;;;;108090;267;42611;-45
2023/06/14 23:39:25;;;;;;;6.20;4.00;;;;;;;;;;108050;274;42132;-51
2023/06/14 23:41:59;;;;;;;6.40;4.30;;;;;;;;;;108054;274;38574;-51
2023/06/14 23:44:36;;;;;;;7.00;3.90;;;;;;;;;;108069;274;40887;-47
2023/06/14 23:47:11;;;;;;;6.50;4.30;;;;;;;;;;108083;274;43263;-47
2023/06/14 23:49:45;;;;;;;6.40;4.40;;;;;;;;;;108070;270;42123;-49
2023/06/14 23:52:20;;;;;;;6.80;4.20;;;;;;;;;;108176;270;38855;-48
2023/06/14 23:54:54;;;;;;;5.90;4.20;;;;;;;;;;108131;274;39728;-47
2023/06/14 23:57:28;;;;;;;5.60;3.80;;;;;;;;;;108150;274;42546;-49
